Time;durP1;ratioP1;P1;durP2;ratioP2;P2;SDS_P1;SDS_P2;PMS_P1;PMS_P2;Temp;Humidity;BMP_temperature;BMP_pressure;BME280_temperature;BME280_humidity;BME280_pressure;Samples;Min_cycle;Max_cycle;Signal;HPM_P1;HPM_P2
2023/08/29 00:02:23;;;;;;;0.40;0.40;;;17.20;91.00;16.40;95507.00;;;;5023365;28;20197;-86
2023/08/29 00:04:51;;;;;;;0.43;0.43;;;17.20;91.00;16.40;95508.00;;;;5020685;28;20198;-85
2023/08/29 00:07:19;;;;;;;0.57;0.57;;;17.20;91.10;16.40;95512.00;;;;5027355;28;20284;-85
2023/08/29 00:09:46;;;;;;;0.70;0.70;;;17.20;91.10;16.40;95505.00;;;;5012588;28;20193;-86
2023/08/29 00:12:13;;;;;;;0.70;0.70;;;17.30;91.10;16.50;95511.00;;;;5020817;28;20570;-85
2023/08/29 00:14:40;;;;;;;0.60;0.60;;;17.30;91.10;16.50;95510.00;;;;5024491;28;20201;-86
2023/08/29 00:17:10;;;;;;;0.60;0.60;;;17.30;91.00;16.50;95505.00;;;;5032583;28;20212;-86
2023/08/29 00:19:39;;;;;;;0.70;0.70;;;17.30;91.00;16.50;95502.00;;;;5030242;28;20616;-86
2023/08/29 00:22:07;;;;;;;0.60;0.60;;;17.30;90.90;16.40;95501.00;;;;5022164;28;20289;-86
2023/08/29 00:24:35;;;;;;;0.67;0.67;;;17.30;90.90;16.40;95504.00;;;;5021597;28;20204;-86
2023/08/29 00:27:03;;;;;;;0.50;0.50;;;17.30;90.80;16.40;95499.00;;;;5002138;28;20224;-86
2023/08/29 00:29:31;;;;;;;0.57;0.57;;;17.30;90.70;16.40;95500.00;;;;5023975;28;20194;-85
2023/08/29 00:31:58;;;;;;;0.60;0.60;;;17.30;90.70;16.40;95502.00;;;;5020609;28;20205;-85
2023/08/29 00:34:25;;;;;;;0.67;0.67;;;17.30;90.80;16.40;95499.00;;;;5022014;28;20225;-86
2023/08/29 00:36:53;;;;;;;0.63;0.63;;;17.30;90.80;16.40;95498.00;;;;5029965;28;20227;-85
2023/08/29 00:39:21;;;;;;;0.80;0.80;;;17.30;90.90;16.40;95493.00;;;;5024797;28;20263;-85
2023/08/29 00:41:49;;;;;;;0.60;0.60;;;17.30;90.80;16.40;95490.00;;;;5017345;28;20205;-85
2023/08/29 00:44:17;;;;;;;0.90;0.90;;;17.30;90.80;16.40;95484.00;;;;5023891;28;20651;-85
2023/08/29 00:46:46;;;;;;;0.77;0.70;;;17.20;90.60;16.30;95488.00;;;;5021593;28;20244;-86
2023/08/29 00:49:18;;;;;;;0.90;0.90;;;17.20;90.50;16.30;95491.00;;;;5023900;28;20297;-85
2023/08/29 00:51:48;;;;;;;0.80;0.80;;;17.20;90.50;16.30;95493.00;;;;5023182;28;20200;-86
2023/08/29 00:54:18;;;;;;;0.60;0.60;;;17.20;90.60;16.30;95489.00;;;;5015303;28;20640;-86
2023/08/29 00:56:49;;;;;;;4.53;0.97;;;17.20;90.40;16.30;95499.00;;;;5013773;28;20206;-85
2023/08/29 00:59:17;;;;;;;0.80;0.80;;;17.10;90.40;16.20;95499.00;;;;5023216;28;20698;-85
2023/08/29 01:01:47;;;;;;;0.70;0.70;;;17.10;90.40;16.20;95500.00;;;;5024292;28;20607;-85
2023/08/29 01:04:15;;;;;;;0.70;0.70;;;17.10;90.40;16.20;95504.00;;;;5025205;28;20294;-85
2023/08/29 01:06:42;;;;;;;0.60;0.60;;;17.10;90.50;16.20;95504.00;;;;5023558;28;20225;-86
2023/08/29 01:09:10;;;;;;;0.50;0.50;;;17.10;90.40;16.20;95501.00;;;;5027956;28;20570;-85
2023/08/29 01:11:48;;;;;;;0.60;0.60;;;17.10;90.40;16.10;95502.00;;;;5020718;28;20224;-86
2023/08/29 01:14:33;;;;;;;0.63;0.63;;;17.00;90.30;16.10;95498.00;;;;5019549;28;20224;-85
2023/08/29 01:17:09;;;;;;;0.60;0.60;;;17.00;90.20;16.10;95501.00;;;;5018029;28;20671;-86
2023/08/29 01:19:40;;;;;;;0.53;0.53;;;17.00;90.30;16.10;95507.00;;;;5032626;28;20300;-86
2023/08/29 01:22:26;;;;;;;0.60;0.60;;;17.00;90.40;16.10;95505.00;;;;5024707;28;20197;-85
2023/08/29 01:25:01;;;;;;;0.50;0.50;;;17.00;90.40;16.10;95497.00;;;;5007080;28;20204;-86
2023/08/29 01:27:31;;;;;;;0.50;0.50;;;17.00;90.50;16.10;95492.00;;;;5022857;28;20201;-86
2023/08/29 01:30:03;;;;;;;0.67;0.67;;;17.00;90.50;16.10;95495.00;;;;5023745;28;20272;-86
2023/08/29 01:32:32;;;;;;;0.50;0.50;;;17.00;90.40;16.00;95484.00;;;;5016046;28;20289;-86
2023/08/29 01:35:00;;;;;;;0.60;0.60;;;17.00;90.30;16.00;95490.00;;;;5025540;28;20686;-86
2023/08/29 01:37:27;;;;;;;0.50;0.50;;;16.90;90.30;16.00;95487.00;;;;5025045;28;20718;-86
2023/08/29 01:39:54;;;;;;;0.50;0.50;;;16.90;90.60;16.00;95494.00;;;;5023639;28;20654;-86
2023/08/29 01:42:21;;;;;;;0.40;0.40;;;16.90;90.40;16.00;95495.00;;;;5022630;28;20567;-86
2023/08/29 01:44:50;;;;;;;0.93;0.40;;;16.90;90.40;16.00;95499.00;;;;5018395;28;20206;-86
2023/08/29 01:47:17;;;;;;;0.47;0.40;;;16.90;90.40;15.90;95497.00;;;;5010161;28;20202;-87
2023/08/29 01:49:47;;;;;;;0.40;0.40;;;16.90;90.40;15.90;95499.00;;;;5025637;28;20197;-86
2023/08/29 01:52:15;;;;;;;0.40;0.40;;;16.80;90.30;15.90;95496.00;;;;5017282;28;20224;-86
2023/08/29 01:54:42;;;;;;;0.40;0.40;;;16.80;90.30;15.90;95497.00;;;;5021421;28;20213;-86
2023/08/29 01:57:11;;;;;;;0.30;0.30;;;16.80;90.30;15.90;95502.00;;;;5015063;28;20198;-85
2023/08/29 01:59:39;;;;;;;0.57;0.40;;;16.80;90.30;15.80;95512.00;;;;5022855;28;20194;-86
2023/08/29 02:02:08;;;;;;;0.40;0.40;;;16.80;90.30;15.80;95503.00;;;;5024673;28;20197;-86
2023/08/29 02:04:35;;;;;;;0.27;0.27;;;16.70;90.30;15.80;95508.00;;;;5028458;28;20208;-86
2023/08/29 02:07:03;;;;;;;0.30;0.30;;;16.70;90.40;15.80;95509.00;;;;5026360;28;20774;-86
2023/08/29 02:09:31;;;;;;;0.20;0.20;;;16.70;90.40;15.80;95509.00;;;;5022626;28;20221;-86
2023/08/29 02:11:58;;;;;;;0.20;0.20;;;16.70;90.40;15.80;95512.00;;;;5020793;28;20221;-87
2023/08/29 02:14:26;;;;;;;0.20;0.20;;;16.70;90.40;15.80;95508.00;;;;5022864;28;20225;-87
2023/08/29 02:16:53;;;;;;;0.20;0.20;;;16.70;90.30;15.80;95506.00;;;;5038503;28;20694;-87
2023/08/29 02:19:22;;;;;;;0.30;0.30;;;16.70;90.30;15.70;95500.00;;;;5033240;28;20206;-87
2023/08/29 02:21:49;;;;;;;0.40;0.40;;;16.70;90.30;15.70;95499.00;;;;5034686;28;20300;-87
2023/08/29 02:24:16;;;;;;;0.30;0.30;;;16.70;90.30;15.70;95496.00;;;;5033043;28;20198;-87
2023/08/29 02:26:44;;;;;;;0.37;0.37;;;16.60;90.30;15.70;95496.00;;;;5026692;28;20633;-87
2023/08/29 02:29:11;;;;;;;0.20;0.20;;;16.60;90.50;15.70;95494.00;;;;5016655;28;20204;-87
2023/08/29 02:31:38;;;;;;;0.20;0.20;;;16.60;90.80;15.70;95496.00;;;;5021935;28;20198;-87
2023/08/29 02:34:06;;;;;;;0.40;0.40;;;16.60;90.50;15.70;95498.00;;;;5021428;28;20222;-87
2023/08/29 02:36:35;;;;;;;0.30;0.30;;;16.60;90.50;15.70;95495.00;;;;5003323;28;20256;-87
2023/08/29 02:39:02;;;;;;;0.30;0.30;;;16.60;90.50;15.70;95510.00;;;;5010296;28;20202;-87
2023/08/29 02:41:29;;;;;;;0.23;0.23;;;16.60;90.60;15.70;95499.00;;;;5022043;28;20289;-87
2023/08/29 02:43:57;;;;;;;0.20;0.20;;;16.60;90.90;15.70;95497.00;;;;5029137;28;20212;-87
2023/08/29 02:46:25;;;;;;;0.40;0.40;;;16.60;90.60;15.70;95489.00;;;;5022923;28;20225;-87
2023/08/29 02:48:52;;;;;;;0.47;0.33;;;16.60;90.50;15.70;95489.00;;;;5024268;28;20212;-88
2023/08/29 02:51:20;;;;;;;0.50;0.50;;;16.60;90.50;15.70;95491.00;;;;5023256;28;20210;-88
2023/08/29 02:53:50;;;;;;;0.30;0.30;;;16.60;90.50;15.70;95497.00;;;;5023532;28;20306;-88
2023/08/29 02:56:18;;;;;;;0.30;0.30;;;16.60;90.50;15.70;95492.00;;;;5007269;28;20244;-88
2023/08/29 02:58:45;;;;;;;0.20;0.20;;;16.60;90.60;15.70;95493.00;;;;5024286;28;20659;-88
2023/08/29 03:01:13;;;;;;;0.20;0.20;;;16.60;90.60;15.70;95485.00;;;;5022351;28;20197;-88
2023/08/29 03:03:40;;;;;;;0.30;0.30;;;16.60;90.60;15.70;95482.00;;;;5024833;28;20206;-88
2023/08/29 03:06:08;;;;;;;0.20;0.20;;;16.60;90.60;15.70;95480.00;;;;5028503;28;20213;-88
2023/08/29 03:08:35;;;;;;;0.30;0.30;;;16.60;90.70;15.70;95479.00;;;;5024112;28;20197;-88
2023/08/29 03:11:05;;;;;;;0.30;0.30;;;16.60;90.70;15.70;95477.00;;;;5014897;28;20206;-88
2023/08/29 03:13:32;;;;;;;0.77;0.30;;;16.60;90.70;15.70;95477.00;;;;5033694;28;20597;-88
2023/08/29 03:16:00;;;;;;;0.30;0.30;;;16.60;90.70;15.70;95469.00;;;;5027461;28;20778;-88
2023/08/29 03:18:27;;;;;;;0.10;0.10;;;16.60;90.60;15.70;95476.00;;;;5020433;28;20233;-88
2023/08/29 03:20:55;;;;;;;0.10;0.10;;;16.60;90.60;15.70;95471.00;;;;5029757;28;20198;-88
2023/08/29 03:23:24;;;;;;;0.20;0.20;;;16.60;90.60;15.70;95473.00;;;;5024195;28;20197;-88
2023/08/29 03:25:52;;;;;;;0.20;0.20;;;16.60;90.60;15.70;95474.00;;;;5020438;28;20304;-88
2023/08/29 03:28:20;;;;;;;0.70;0.30;;;16.60;90.60;15.70;95471.00;;;;5018605;28;20664;-88
2023/08/29 03:30:47;;;;;;;0.20;0.20;;;16.60;90.50;15.70;95471.00;;;;5014873;28;20202;-88
2023/08/29 03:33:15;;;;;;;0.20;0.20;;;16.60;90.50;15.70;95472.00;;;;5022861;28;20277;-88
2023/08/29 03:35:42;;;;;;;0.20;0.20;;;16.60;90.60;15.70;95471.00;;;;5023406;28;20217;-88
2023/08/29 03:38:09;;;;;;;0.20;0.20;;;16.60;90.60;15.70;95467.00;;;;5016010;28;20229;-89
2023/08/29 03:40:37;;;;;;;0.37;0.30;;;16.60;90.60;15.70;95473.00;;;;5022249;28;20205;-88
2023/08/29 03:43:04;;;;;;;0.23;0.23;;;16.60;90.70;15.80;95467.00;;;;5019966;28;20578;-88
2023/08/29 03:45:33;;;;;;;0.27;0.20;;;16.60;90.60;15.70;95469.00;;;;5017185;28;20228;-88
2023/08/29 03:48:00;;;;;;;0.20;0.20;;;16.60;90.60;15.80;95465.00;;;;5008707;28;20193;-88
2023/08/29 03:50:28;;;;;;;0.30;0.30;;;16.60;90.60;15.80;95475.00;;;;5026839;28;20206;-88
2023/08/29 03:52:56;;;;;;;0.40;0.30;;;16.60;90.70;15.80;95471.00;;;;5021470;28;20209;-88
2023/08/29 03:55:23;;;;;;;0.20;0.20;;;16.60;90.70;15.80;95473.00;;;;5022435;28;20609;-88
2023/08/29 03:57:51;;;;;;;0.30;0.30;;;16.70;90.90;15.80;95474.00;;;;5026650;28;20236;-88
2023/08/29 04:00:19;;;;;;;0.30;0.30;;;16.70;90.70;15.80;95476.00;;;;5035648;28;20201;-88
2023/08/29 04:02:49;;;;;;;0.50;0.50;;;16.60;90.60;15.80;95476.00;;;;5015410;28;20210;-88
2023/08/29 04:05:17;;;;;;;0.30;0.30;;;16.60;90.60;15.80;95478.00;;;;5023527;28;20592;-88
2023/08/29 04:07:45;;;;;;;0.47;0.47;;;16.60;90.70;15.80;95482.00;;;;5030257;28;20228;-88
2023/08/29 04:10:13;;;;;;;0.43;0.20;;;16.60;90.60;15.80;95476.00;;;;5027004;28;20623;-88
2023/08/29 04:12:41;;;;;;;0.33;0.33;;;16.60;90.60;15.80;95477.00;;;;5027377;28;20205;-88
2023/08/29 04:15:10;;;;;;;0.30;0.30;;;16.60;90.70;15.80;95477.00;;;;5017275;28;20222;-88
2023/08/29 04:17:40;;;;;;;0.30;0.30;;;16.60;90.70;15.80;95482.00;;;;5023326;28;20200;-88
2023/08/29 04:20:12;;;;;;;1.13;0.30;;;16.60;90.70;15.80;95478.00;;;;5028588;28;20193;-88
2023/08/29 04:22:40;;;;;;;0.40;0.40;;;16.70;90.70;15.80;95473.00;;;;5034791;28;20198;-88
2023/08/29 04:25:08;;;;;;;0.30;0.30;;;16.70;90.70;15.80;95470.00;;;;5019102;28;20311;-87
2023/08/29 04:27:37;;;;;;;0.40;0.40;;;16.70;90.60;15.80;95469.00;;;;5025366;28;20212;-88
2023/08/29 04:30:06;;;;;;;0.50;0.50;;;16.70;90.60;15.80;95471.00;;;;5011073;28;20641;-88
2023/08/29 04:32:36;;;;;;;0.30;0.30;;;16.70;90.70;15.80;95474.00;;;;5014541;28;20216;-89
2023/08/29 04:35:05;;;;;;;0.30;0.30;;;16.70;90.70;15.80;95473.00;;;;5023957;28;20222;-89
2023/08/29 04:37:34;;;;;;;0.33;0.30;;;16.70;90.70;15.80;95477.00;;;;5027244;28;20209;-88
2023/08/29 04:40:06;;;;;;;0.40;0.40;;;16.70;90.60;15.80;95487.00;;;;5027129;28;20202;-89
2023/08/29 04:42:33;;;;;;;0.30;0.30;;;16.70;90.60;15.80;95485.00;;;;5031264;28;20219;-89
2023/08/29 04:45:04;;;;;;;0.40;0.40;;;16.70;90.60;15.80;95485.00;;;;5029314;28;20637;-89
2023/08/29 04:47:31;;;;;;;0.30;0.30;;;16.70;90.50;15.80;95484.00;;;;5033768;28;20259;-88
2023/08/29 04:50:00;;;;;;;0.30;0.30;;;16.70;90.60;15.80;95485.00;;;;5034453;28;20205;-89
2023/08/29 04:52:27;;;;;;;0.40;0.40;;;16.70;90.60;15.80;95486.00;;;;5018491;28;20202;-89
2023/08/29 04:54:57;;;;;;;0.50;0.50;;;16.70;90.60;15.80;95478.00;;;;5020885;28;20225;-89
2023/08/29 04:57:24;;;;;;;0.30;0.30;;;16.70;90.60;15.80;95479.00;;;;5013318;28;20214;-89
2023/08/29 04:59:51;;;;;;;0.40;0.40;;;16.70;90.70;15.90;95481.00;;;;5025753;28;20565;-89
2023/08/29 05:02:20;;;;;;;0.40;0.40;;;16.70;90.80;15.90;95482.00;;;;5008399;28;20204;-88
2023/08/29 05:04:47;;;;;;;0.50;0.50;;;16.70;90.80;15.90;95482.00;;;;4996734;28;20245;-88
2023/08/29 05:07:15;;;;;;;0.33;0.33;;;16.80;90.80;15.90;95483.00;;;;5017105;28;20202;-88
2023/08/29 05:09:42;;;;;;;0.30;0.30;;;16.80;90.80;15.90;95481.00;;;;5024458;28;20199;-89
2023/08/29 05:12:12;;;;;;;0.50;0.50;;;16.80;90.80;15.90;95482.00;;;;5026489;28;20276;-88
2023/08/29 05:14:39;;;;;;;0.40;0.40;;;16.80;90.80;16.00;95478.00;;;;5030511;28;20779;-88
2023/08/29 05:17:09;;;;;;;0.50;0.50;;;16.80;90.70;15.90;95487.00;;;;5022878;28;20281;-89
2023/08/29 05:19:36;;;;;;;0.33;0.33;;;16.80;90.60;15.90;95483.00;;;;5023078;28;20686;-89
2023/08/29 05:22:04;;;;;;;0.40;0.40;;;16.80;90.60;15.90;95479.00;;;;5023947;28;20216;-88
2023/08/29 05:24:31;;;;;;;0.40;0.40;;;16.80;90.60;16.00;95480.00;;;;5021974;28;20730;-88
2023/08/29 05:26:58;;;;;;;0.50;0.50;;;16.80;90.60;16.00;95482.00;;;;5018175;28;20228;-88
2023/08/29 05:29:27;;;;;;;0.37;0.37;;;16.80;90.70;16.00;95490.00;;;;5031952;28;20202;-88
2023/08/29 05:31:54;;;;;;;0.33;0.33;;;16.80;90.70;16.00;95485.00;;;;5009694;28;20645;-89
2023/08/29 05:34:21;;;;;;;0.30;0.30;;;16.80;90.70;16.00;95498.00;;;;5019648;28;20775;-88
2023/08/29 05:36:51;;;;;;;0.40;0.40;;;16.80;90.80;16.00;95490.00;;;;5024852;28;20226;-89
2023/08/29 05:39:19;;;;;;;0.40;0.40;;;16.90;90.80;16.10;95493.00;;;;5027620;28;20201;-89
2023/08/29 05:41:46;;;;;;;0.30;0.30;;;16.90;90.80;16.10;95493.00;;;;5020074;28;20186;-89
2023/08/29 05:44:14;;;;;;;0.30;0.30;;;16.90;90.90;16.10;95494.00;;;;5020752;28;20212;-89
2023/08/29 05:46:46;;;;;;;0.30;0.30;;;17.00;91.00;16.20;95496.00;;;;5022279;28;20225;-87
2023/08/29 05:49:13;;;;;;;0.47;0.47;;;17.00;91.00;16.20;95487.00;;;;5025667;28;20213;-88
2023/08/29 05:51:42;;;;;;;0.40;0.40;;;17.00;90.90;16.20;95496.00;;;;5023825;28;20201;-88
2023/08/29 05:54:09;;;;;;;0.40;0.40;;;17.00;91.00;16.30;95494.00;;;;5022917;28;20201;-87
2023/08/29 05:56:37;;;;;;;0.47;0.47;;;17.10;91.00;16.30;95497.00;;;;5020625;28;20213;-88
2023/08/29 05:59:05;;;;;;;0.43;0.43;;;17.10;90.90;16.30;95504.00;;;;5018655;28;20292;-88
2023/08/29 06:01:35;;;;;;;0.53;0.50;;;17.10;90.80;16.30;95512.00;;;;5023097;28;20224;-88
2023/08/29 06:04:04;;;;;;;0.30;0.30;;;17.20;90.80;16.30;95517.00;;;;5019509;28;20289;-88
2023/08/29 06:06:32;;;;;;;0.40;0.40;;;17.20;90.70;16.40;95513.00;;;;5023615;28;20307;-88
2023/08/29 06:09:02;;;;;;;0.40;0.40;;;17.20;90.60;16.40;95514.00;;;;5012856;28;20208;-88
2023/08/29 06:11:31;;;;;;;0.40;0.40;;;17.20;90.60;16.40;95522.00;;;;5021675;28;20671;-89
2023/08/29 06:13:58;;;;;;;0.40;0.40;;;17.20;90.50;16.40;95515.00;;;;5023943;28;20585;-89
2023/08/29 06:16:25;;;;;;;0.70;0.70;;;17.20;90.60;16.40;95524.00;;;;5025084;28;20221;-89
2023/08/29 06:18:53;;;;;;;0.43;0.43;;;17.20;90.50;16.40;95526.00;;;;5021800;28;20285;-89
2023/08/29 06:21:21;;;;;;;0.50;0.50;;;17.20;90.60;16.40;95532.00;;;;5022193;28;20285;-88
2023/08/29 06:23:49;;;;;;;0.40;0.40;;;17.20;90.70;16.40;95534.00;;;;5024576;28;20205;-89
2023/08/29 06:26:16;;;;;;;0.43;0.43;;;17.20;90.70;16.40;95538.00;;;;5030431;28;20724;-88
2023/08/29 06:28:43;;;;;;;0.60;0.60;;;17.30;90.70;16.40;95544.00;;;;5019638;28;20220;-89
2023/08/29 06:31:10;;;;;;;0.50;0.50;;;17.30;90.70;16.50;95546.00;;;;5028693;28;20229;-88
2023/08/29 06:33:39;;;;;;;0.50;0.50;;;17.30;90.70;16.50;95542.00;;;;5026688;28;20286;-88
2023/08/29 06:36:07;;;;;;;0.50;0.50;;;17.30;90.70;16.50;95550.00;;;;5030013;28;20272;-88
2023/08/29 06:38:36;;;;;;;0.50;0.50;;;17.30;90.70;16.50;95554.00;;;;5027662;28;20194;-89
2023/08/29 06:41:04;;;;;;;0.63;0.60;;;17.40;90.60;16.50;95552.00;;;;5034010;28;20573;-88
2023/08/29 06:43:32;;;;;;;0.60;0.60;;;17.40;90.60;16.60;95551.00;;;;5002027;28;20205;-88
2023/08/29 06:45:59;;;;;;;0.50;0.50;;;17.40;90.60;16.60;95562.00;;;;5027242;28;20227;-88
2023/08/29 06:48:26;;;;;;;0.50;0.50;;;17.40;90.60;16.60;95563.00;;;;5026166;28;20202;-88
2023/08/29 06:50:53;;;;;;;0.43;0.43;;;17.40;90.60;16.60;95564.00;;;;5027759;28;20292;-89
2023/08/29 06:53:20;;;;;;;0.40;0.40;;;17.40;90.60;16.60;95560.00;;;;5025819;28;20205;-88
2023/08/29 06:55:49;;;;;;;0.83;0.47;;;17.40;90.60;16.60;95566.00;;;;5034029;28;20225;-89
2023/08/29 06:58:17;;;;;;;0.33;0.30;;;17.40;90.60;16.60;95568.00;;;;5022389;28;20201;-88
2023/08/29 07:00:44;;;;;;;0.60;0.60;;;17.40;90.70;16.60;95567.00;;;;5029719;28;20221;-89
2023/08/29 07:03:12;;;;;;;0.40;0.40;;;17.50;90.70;16.60;95566.00;;;;5021204;28;20641;-89
2023/08/29 07:05:39;;;;;;;1.40;0.60;;;17.50;90.60;16.60;95567.00;;;;5020841;28;20311;-88
2023/08/29 07:08:07;;;;;;;1.33;0.60;;;17.50;90.60;16.60;95568.00;;;;5048925;28;20224;-88
2023/08/29 07:10:34;;;;;;;0.60;0.60;;;17.50;90.60;16.60;95570.00;;;;5046688;28;20221;-88
2023/08/29 07:13:03;;;;;;;0.50;0.50;;;17.50;90.60;16.60;95574.00;;;;5045265;28;20208;-88
2023/08/29 07:15:31;;;;;;;0.57;0.50;;;17.50;90.60;16.70;95574.00;;;;5043628;28;20256;-88
2023/08/29 07:17:58;;;;;;;0.37;0.37;;;17.50;90.60;16.70;95566.00;;;;5036107;28;20186;-87
2023/08/29 07:20:25;;;;;;;0.37;0.37;;;17.50;90.50;16.70;95571.00;;;;5028799;28;20284;-88
2023/08/29 07:22:53;;;;;;;0.50;0.50;;;17.50;90.50;16.60;95569.00;;;;5028958;28;20583;-89
2023/08/29 07:25:37;;;;;;;0.30;0.30;;;17.50;90.40;16.60;95568.00;;;;5009898;28;20225;-89
2023/08/29 07:28:08;;;;;;;0.20;0.20;;;17.50;90.50;16.60;95576.00;;;;5021075;28;20679;-89
2023/08/29 07:30:36;;;;;;;0.30;0.30;;;17.50;90.40;16.60;95574.00;;;;5026863;28;20205;-90
2023/08/29 07:33:04;;;;;;;0.30;0.30;;;17.50;90.40;16.60;95586.00;;;;5028127;28;20694;-89
2023/08/29 07:35:31;;;;;;;0.30;0.20;;;17.50;90.40;16.60;95589.00;;;;5031218;28;20229;-89
2023/08/29 07:37:59;;;;;;;0.23;0.23;;;17.50;90.40;16.60;95589.00;;;;5024283;28;20201;-89
2023/08/29 07:40:26;;;;;;;0.37;0.37;;;17.50;90.40;16.60;95588.00;;;;5023996;28;20208;-89
2023/08/29 07:42:54;;;;;;;0.13;0.13;;;17.50;90.50;16.60;95599.00;;;;5011267;28;20710;-90
2023/08/29 07:45:22;;;;;;;1.23;0.30;;;17.50;90.40;16.60;95600.00;;;;5033845;28;20698;-89
2023/08/29 07:47:50;;;;;;;0.97;0.30;;;17.50;90.40;16.70;95597.00;;;;5027410;28;20205;-89
2023/08/29 07:50:17;;;;;;;0.47;0.47;;;17.50;90.60;16.70;95601.00;;;;5034485;28;20288;-89
2023/08/29 07:52:45;;;;;;;0.30;0.30;;;17.50;90.60;16.70;95599.00;;;;5031887;28;20225;-89
2023/08/29 07:55:12;;;;;;;0.30;0.30;;;17.50;90.70;16.70;95605.00;;;;5009656;28;20253;-89
2023/08/29 07:57:40;;;;;;;0.33;0.33;;;17.50;90.70;16.70;95599.00;;;;5018836;28;20741;-89
2023/08/29 08:00:10;;;;;;;0.27;0.27;;;17.60;90.70;16.80;95598.00;;;;5033829;28;20210;-88
2023/08/29 08:02:39;;;;;;;0.20;0.20;;;17.60;90.60;16.80;95600.00;;;;5033851;28;20213;-88
2023/08/29 08:05:08;;;;;;;0.20;0.20;;;17.60;90.50;16.80;95596.00;;;;5036276;28;20217;-89
2023/08/29 08:07:35;;;;;;;0.10;0.10;;;17.60;90.50;16.80;95593.00;;;;5035767;28;20208;-89
2023/08/29 08:10:04;;;;;;;0.73;0.50;;;17.60;90.50;16.80;95588.00;;;;5033958;28;20196;-89
2023/08/29 08:12:31;;;;;;;0.17;0.17;;;17.60;90.50;16.80;95591.00;;;;5030710;28;20209;-89
2023/08/29 08:15:00;;;;;;;0.20;0.20;;;17.60;90.50;16.80;95588.00;;;;5020963;28;20661;-89
2023/08/29 08:17:27;;;;;;;0.20;0.20;;;17.60;90.50;16.80;95586.00;;;;5028719;28;20232;-88
2023/08/29 08:19:56;;;;;;;0.20;0.20;;;17.60;90.50;16.80;95594.00;;;;5014403;28;20193;-89
2023/08/29 08:22:24;;;;;;;0.30;0.30;;;17.60;90.40;16.80;95603.00;;;;5027016;28;20197;-89
2023/08/29 08:24:51;;;;;;;0.40;0.40;;;17.60;90.40;16.80;95605.00;;;;5031264;28;20209;-89
2023/08/29 08:27:19;;;;;;;0.53;0.40;;;17.60;90.40;16.80;95605.00;;;;5021719;28;20204;-89
2023/08/29 08:29:47;;;;;;;0.20;0.20;;;17.60;90.50;16.80;95605.00;;;;5024200;28;20205;-90
2023/08/29 08:32:14;;;;;;;0.20;0.20;;;17.60;90.50;16.80;95601.00;;;;5031733;28;20197;-90
2023/08/29 08:34:42;;;;;;;0.23;0.23;;;17.60;90.50;16.80;95605.00;;;;5023543;28;20205;-90
2023/08/29 08:37:11;;;;;;;0.23;0.23;;;17.70;90.60;16.80;95603.00;;;;5030274;28;20201;-90
2023/08/29 08:39:38;;;;;;;0.30;0.30;;;17.70;90.60;16.90;95607.00;;;;5025118;28;20193;-91
2023/08/29 08:42:06;;;;;;;0.20;0.20;;;17.70;90.70;16.90;95613.00;;;;5009233;28;20204;-92
2023/08/29 08:44:34;;;;;;;0.20;0.20;;;17.70;90.60;16.90;95612.00;;;;5031835;28;20284;-91
2023/08/29 08:47:25;;;;;;;0.30;0.30;;;17.70;90.60;16.90;95608.00;;;;5021033;28;20220;-89
2023/08/29 08:49:52;;;;;;;0.30;0.20;;;17.70;90.70;16.90;95621.00;;;;5024973;28;20300;-90
2023/08/29 08:52:21;;;;;;;0.30;0.30;;;17.80;90.80;17.00;95629.00;;;;5033492;28;20198;-90
2023/08/29 08:54:48;;;;;;;0.40;0.40;;;17.80;90.80;17.00;95639.00;;;;5018325;28;20205;-90
2023/08/29 08:57:16;;;;;;;0.40;0.30;;;17.80;90.80;17.00;95631.00;;;;5030314;28;20225;-90
2023/08/29 08:59:44;;;;;;;0.30;0.30;;;17.80;90.90;17.10;95627.00;;;;4997398;28;20201;-90
2023/08/29 09:02:34;;;;;;;0.33;0.33;;;17.80;90.90;17.10;95631.00;;;;5033912;28;20261;-90
2023/08/29 09:05:04;;;;;;;0.27;0.27;;;17.90;90.80;17.10;95630.00;;;;5024180;28;20248;-89
2023/08/29 09:07:43;;;;;;;0.40;0.40;;;17.90;90.90;17.10;95634.00;;;;5027305;28;20219;-89
2023/08/29 09:10:16;;;;;;;0.40;0.40;;;17.90;90.80;17.20;95632.00;;;;5031936;28;20577;-89
2023/08/29 09:12:54;;;;;;;0.30;0.30;;;18.00;90.80;17.20;95633.00;;;;5026933;28;20578;-89
2023/08/29 09:15:31;;;;;;;0.30;0.30;;;18.00;90.80;17.20;95626.00;;;;5023889;28;20225;-89
2023/08/29 09:18:02;;;;;;;0.30;0.30;;;17.90;90.70;17.30;95634.00;;;;5030571;28;20188;-89
2023/08/29 09:20:33;;;;;;;0.30;0.30;;;18.10;90.90;17.30;95636.00;;;;5029355;28;20209;-90
2023/08/29 09:23:02;;;;;;;0.40;0.40;;;18.10;90.80;17.30;95634.00;;;;5029437;28;20197;-89
2023/08/29 09:25:57;;;;;;;0.30;0.30;;;18.10;90.90;17.40;95642.00;;;;5024763;28;20224;-89
2023/08/29 09:28:38;;;;;;;0.33;0.33;;;18.20;91.00;17.40;95633.00;;;;5015611;28;20201;-90
2023/08/29 09:31:10;;;;;;;0.20;0.20;;;18.20;91.00;17.40;95646.00;;;;5027360;28;21000;-90
2023/08/29 09:33:39;;;;;;;0.20;0.20;;;18.30;91.00;17.50;95643.00;;;;5034236;28;20197;-90
2023/08/29 09:36:07;;;;;;;0.40;0.40;;;18.30;91.00;17.50;95657.00;;;;5042063;28;20688;-90
2023/08/29 09:38:36;;;;;;;0.30;0.30;;;18.30;90.90;17.50;95653.00;;;;5035371;28;20233;-90
2023/08/29 09:41:05;;;;;;;0.30;0.30;;;18.30;90.80;17.60;95656.00;;;;5033234;28;20221;-91
2023/08/29 09:43:46;;;;;;;0.27;0.27;;;18.40;90.90;17.60;95654.00;;;;5031460;28;20281;-90
2023/08/29 09:46:17;;;;;;;0.30;0.30;;;18.40;90.80;17.60;95662.00;;;;5031647;28;20231;-90
2023/08/29 09:48:58;;;;;;;0.20;0.20;;;18.30;90.80;17.60;95660.00;;;;5028176;28;20202;-90
2023/08/29 09:51:36;;;;;;;0.20;0.20;;;18.40;90.70;17.70;95662.00;;;;5029785;28;20632;-90
2023/08/29 09:54:09;;;;;;;0.20;0.20;;;18.40;90.80;17.70;95659.00;;;;5030227;28;20194;-90
2023/08/29 09:57:10;;;;;;;0.10;0.10;;;18.50;90.80;17.70;95656.00;;;;5033388;28;20229;-90
2023/08/29 10:00:04;;;;;;;0.20;0.20;;;18.50;90.90;17.80;95661.00;;;;5023781;28;20209;-90
2023/08/29 10:05:36;;;;;;;0.20;0.20;;;18.60;91.10;17.90;95667.00;;;;5032773;28;20228;-89
2023/08/29 10:08:14;;;;;;;0.20;0.20;;;18.60;91.00;17.90;95663.00;;;;5028713;28;20624;-90
2023/08/29 10:10:48;;;;;;;0.10;0.10;;;18.70;91.00;18.00;95664.00;;;;5028469;28;20213;-89
2023/08/29 10:16:21;;;;;;;1.07;0.20;;;18.70;90.90;18.00;95672.00;;;;5023511;28;20253;-90
2023/08/29 10:18:51;;;;;;;0.10;0.10;;;18.80;90.80;18.00;95671.00;;;;5025864;28;20284;-89
2023/08/29 10:21:21;;;;;;;0.20;0.20;;;18.80;90.60;18.00;95680.00;;;;5026483;28;20643;-90
2023/08/29 10:23:50;;;;;;;0.20;0.20;;;18.80;90.50;18.00;95679.00;;;;5028286;28;20207;-90
2023/08/29 10:26:20;;;;;;;0.40;0.40;;;18.80;90.30;18.00;95675.00;;;;5028700;28;20257;-90
2023/08/29 10:28:50;;;;;;;0.30;0.30;;;18.70;90.20;18.00;95668.00;;;;5028911;28;20194;-90
2023/08/29 10:31:20;;;;;;;0.30;0.30;;;18.70;90.20;17.90;95666.00;;;;5029562;28;20621;-90
2023/08/29 10:33:53;;;;;;;0.40;0.40;;;18.70;90.30;17.90;95657.00;;;;5037486;28;20227;-90
2023/08/29 10:36:21;;;;;;;0.23;0.23;;;18.70;90.30;17.90;95661.00;;;;5029129;28;20256;-91
2023/08/29 10:38:49;;;;;;;0.20;0.20;;;18.70;90.50;17.90;95664.00;;;;5029671;28;20288;-90
2023/08/29 10:41:18;;;;;;;0.30;0.30;;;18.70;90.50;18.00;95663.00;;;;5028087;28;20202;-90
2023/08/29 10:43:50;;;;;;;0.23;0.23;;;18.70;90.50;18.00;95663.00;;;;5037695;28;20209;-90
2023/08/29 10:46:20;;;;;;;0.40;0.40;;;18.70;90.60;18.00;95671.00;;;;5029287;28;20222;-89
2023/08/29 10:48:55;;;;;;;0.40;0.40;;;18.80;90.70;18.00;95678.00;;;;5029814;28;20193;-90
2023/08/29 10:51:25;;;;;;;1.17;0.43;;;18.80;90.70;18.10;95680.00;;;;5027987;28;20210;-90
2023/08/29 10:53:56;;;;;;;0.27;0.27;;;18.80;90.80;18.10;95674.00;;;;5026816;28;20682;-90
2023/08/29 10:56:39;;;;;;;0.23;0.23;;;18.90;90.80;18.10;95677.00;;;;5034299;28;20698;-89
2023/08/29 10:59:27;;;;;;;0.30;0.30;;;18.90;90.70;18.20;95676.00;;;;5015481;28;20203;-89
2023/08/29 11:02:26;;;;;;;0.30;0.30;;;18.90;90.50;18.20;95671.00;;;;5016548;28;20726;-88
2023/08/29 11:05:10;;;;;;;0.30;0.30;;;19.00;90.20;18.20;95673.00;;;;5026394;28;20210;-89
2023/08/29 11:07:38;;;;;;;0.33;0.33;;;19.00;90.50;18.20;95676.00;;;;5029144;28;20259;-88
2023/08/29 11:10:21;;;;;;;0.20;0.20;;;19.00;90.50;18.20;95671.00;;;;5032023;28;20693;-88
2023/08/29 11:13:10;;;;;;;0.30;0.20;;;19.00;90.00;18.20;95674.00;;;;5033016;28;20244;-88